createdAt,value
2022-10-17T00:00:33.935Z,12.10
2022-10-17T00:03:03.586Z,12.10
2022-10-17T00:05:31.433Z,12.00
2022-10-17T00:07:59.307Z,11.90
2022-10-17T00:10:27.179Z,11.90
2022-10-17T00:12:55.043Z,11.80
2022-10-17T00:15:24.001Z,11.70
2022-10-17T00:17:51.883Z,11.70
2022-10-17T00:20:21.295Z,11.70
2022-10-17T00:22:49.193Z,11.60
2022-10-17T00:25:17.070Z,12.50
2022-10-17T00:27:45.368Z,11.50
2022-10-17T00:30:16.440Z,11.40
2022-10-17T00:32:44.634Z,11.40
2022-10-17T00:35:12.571Z,11.30
2022-10-17T00:37:41.813Z,11.90
2022-10-17T00:40:11.411Z,11.20
2022-10-17T00:42:39.328Z,11.20
2022-10-17T00:45:18.399Z,11.60
2022-10-17T00:47:51.447Z,11.20
2022-10-17T00:50:20.478Z,11.20
2022-10-17T00:52:50.461Z,11.30
2022-10-17T00:55:22.785Z,11.10
2022-10-17T00:57:51.721Z,11.10
2022-10-17T01:00:20.655Z,11.10
2022-10-17T01:02:48.938Z,11.10
2022-10-17T01:05:17.812Z,11.00
2022-10-17T01:07:46.858Z,11.00
2022-10-17T01:10:16.616Z,11.50
2022-10-17T01:12:56.578Z,11.60
2022-10-17T01:15:36.162Z,10.90
2022-10-17T01:18:13.860Z,10.90
2022-10-17T01:21:13.956Z,10.90
2022-10-17T01:24:24.972Z,10.90
2022-10-17T01:27:19.015Z,10.90
2022-10-17T01:30:03.388Z,10.90
2022-10-17T01:32:38.925Z,10.90
2022-10-17T01:35:15.429Z,11.90
2022-10-17T01:37:47.839Z,11.00
2022-10-17T01:40:21.338Z,11.00
2022-10-17T01:42:55.802Z,11.00
2022-10-17T01:45:29.736Z,10.90
2022-10-17T01:48:04.770Z,10.90
2022-10-17T01:50:37.439Z,10.90
2022-10-17T01:53:09.840Z,10.80
2022-10-17T01:55:40.885Z,10.80
2022-10-17T01:58:13.440Z,10.80
2022-10-17T02:00:43.816Z,10.80
2022-10-17T02:03:17.564Z,10.80
2022-10-17T02:05:46.319Z,10.80
2022-10-17T02:08:14.611Z,10.70
2022-10-17T02:10:48.261Z,10.70
2022-10-17T02:13:23.682Z,10.80
2022-10-17T02:16:04.755Z,10.70
2022-10-17T02:18:50.778Z,10.70
2022-10-17T02:21:26.308Z,10.70
2022-10-17T02:24:00.564Z,10.80
2022-10-17T02:26:33.769Z,10.70
2022-10-17T02:29:07.652Z,11.70
2022-10-17T02:31:40.928Z,10.70
2022-10-17T02:34:14.454Z,10.80
2022-10-17T02:36:47.441Z,10.70
2022-10-17T02:39:17.589Z,10.70
2022-10-17T02:41:46.589Z,10.70
2022-10-17T02:44:14.962Z,10.70
2022-10-17T02:46:46.009Z,10.70
2022-10-17T02:49:19.562Z,10.70
2022-10-17T02:51:53.567Z,10.70
2022-10-17T02:54:27.891Z,10.70
2022-10-17T02:57:00.414Z,10.80
2022-10-17T02:59:31.645Z,11.80
2022-10-17T03:02:03.208Z,10.90
2022-10-17T03:04:32.472Z,10.90
2022-10-17T03:07:00.411Z,12.60
2022-10-17T03:09:28.806Z,11.20
2022-10-17T03:11:56.676Z,11.90
2022-10-17T03:14:24.510Z,11.50
2022-10-17T03:16:52.811Z,11.60
2022-10-17T03:19:20.746Z,11.60
2022-10-17T03:21:49.965Z,11.70
2022-10-17T03:24:17.851Z,11.80
2022-10-17T03:29:14.991Z,12.00
2022-10-17T03:31:42.966Z,12.00
2022-10-17T03:34:10.803Z,12.10
2022-10-17T03:36:38.713Z,12.90
2022-10-17T03:39:07.967Z,12.30
2022-10-17T03:41:36.229Z,12.40
2022-10-17T03:44:04.342Z,14.10
2022-10-17T03:46:32.266Z,12.70
2022-10-17T03:49:00.232Z,13.50
2022-10-17T03:51:28.167Z,12.80
2022-10-17T03:53:56.093Z,12.80
2022-10-17T03:56:28.087Z,12.80
2022-10-17T03:58:57.829Z,12.80
2022-10-17T04:01:25.779Z,12.80
2022-10-17T04:03:56.871Z,12.80
2022-10-17T04:06:25.193Z,13.70
2022-10-17T04:08:53.078Z,12.90
2022-10-17T04:11:22.386Z,13.00
2022-10-17T04:13:56.590Z,13.00
2022-10-17T04:16:25.370Z,13.00
2022-10-17T04:18:55.235Z,13.10
2022-10-17T04:21:24.643Z,13.20
2022-10-17T04:23:55.616Z,13.20
2022-10-17T04:26:23.625Z,13.20
2022-10-17T04:28:51.910Z,13.40
2022-10-17T04:31:21.105Z,13.20
2022-10-17T04:33:50.389Z,13.20
2022-10-17T04:36:20.690Z,13.20
2022-10-17T04:38:48.618Z,13.20
2022-10-17T04:41:18.454Z,13.40
2022-10-17T04:43:50.133Z,13.30
2022-10-17T04:46:19.476Z,13.30
2022-10-17T04:48:48.859Z,13.30
2022-10-17T04:51:21.839Z,13.30
2022-10-17T04:53:52.397Z,13.40
2022-10-17T04:56:22.408Z,14.20
2022-10-17T04:58:51.083Z,13.40
2022-10-17T05:01:21.026Z,13.40
2022-10-17T05:03:50.662Z,13.70
2022-10-17T05:06:21.266Z,13.50
2022-10-17T05:08:49.885Z,13.50
2022-10-17T05:11:19.862Z,13.50
2022-10-17T05:13:51.784Z,13.60
2022-10-17T05:16:19.867Z,13.60
2022-10-17T05:18:53.008Z,13.60
2022-10-17T05:21:21.903Z,13.60
2022-10-17T05:23:49.951Z,14.30
2022-10-17T05:26:18.399Z,13.60
2022-10-17T05:28:46.308Z,13.70
2022-10-17T05:31:14.818Z,13.80
2022-10-17T05:33:42.692Z,13.70
2022-10-17T05:36:11.940Z,13.90
2022-10-17T05:38:39.979Z,14.00
2022-10-17T05:41:08.114Z,13.80
2022-10-17T05:43:36.247Z,13.80
2022-10-17T05:46:05.398Z,13.90
2022-10-17T05:48:33.696Z,13.90
2022-10-17T05:51:02.740Z,13.90
2022-10-17T05:53:33.980Z,13.90
2022-10-17T05:56:03.547Z,13.90
2022-10-17T05:58:49.156Z,13.90
2022-10-17T06:01:18.482Z,13.90
2022-10-17T06:03:46.369Z,14.00
2022-10-17T06:06:15.692Z,13.90
2022-10-17T06:08:45.681Z,13.90
2022-10-17T06:11:13.851Z,14.30
2022-10-17T06:13:42.265Z,13.90
2022-10-17T06:16:10.159Z,14.00
2022-10-17T06:18:38.147Z,15.20
2022-10-17T06:21:07.563Z,15.90
2022-10-17T06:23:35.491Z,14.10
2022-10-17T06:26:06.750Z,14.20
2022-10-17T06:28:35.489Z,14.20
2022-10-17T06:31:06.774Z,14.50
2022-10-17T06:33:34.657Z,14.20
2022-10-17T06:36:02.867Z,14.30
2022-10-17T06:38:31.072Z,14.70
2022-10-17T06:41:08.188Z,14.30
2022-10-17T06:43:36.347Z,14.30
2022-10-17T06:46:04.354Z,14.90
2022-10-17T06:48:32.407Z,14.40
2022-10-17T06:51:01.427Z,14.40
2022-10-17T06:53:29.752Z,15.10
2022-10-17T06:56:01.526Z,15.20
2022-10-17T06:58:31.090Z,14.70
2022-10-17T07:01:02.814Z,15.50
2022-10-17T07:03:31.101Z,15.70
2022-10-17T07:05:59.641Z,15.50
2022-10-17T07:08:28.111Z,15.30
2022-10-17T07:10:56.595Z,16.10
2022-10-17T07:13:25.458Z,15.20
2022-10-17T07:18:26.210Z,15.90
2022-10-17T07:20:55.026Z,15.50
2022-10-17T07:23:23.586Z,15.50
2022-10-17T07:25:51.510Z,15.80
2022-10-17T07:28:19.695Z,15.70
2022-10-17T07:30:51.919Z,15.70
2022-10-17T07:33:23.119Z,15.90
2022-10-17T07:35:52.692Z,15.90
2022-10-17T07:38:20.707Z,15.90
2022-10-17T07:40:55.922Z,16.00
2022-10-17T07:43:24.617Z,16.00
2022-10-17T07:45:52.919Z,16.10
2022-10-17T07:48:23.762Z,16.20
2022-10-17T07:50:52.182Z,16.50
2022-10-17T07:53:20.330Z,16.30
2022-10-17T07:55:49.603Z,16.40
2022-10-17T07:58:17.704Z,16.40
2022-10-17T08:00:48.247Z,16.50
2022-10-17T08:03:16.403Z,17.20
2022-10-17T08:05:45.621Z,17.20
2022-10-17T08:08:13.557Z,16.90
2022-10-17T08:10:41.504Z,17.10
2022-10-17T08:13:09.415Z,16.90
2022-10-17T08:15:39.785Z,17.00
2022-10-17T08:18:07.713Z,17.30
2022-10-17T08:20:35.701Z,17.50
2022-10-17T08:23:04.926Z,17.20
2022-10-17T08:25:33.376Z,17.30
2022-10-17T08:28:01.382Z,17.40
2022-10-17T08:30:30.611Z,17.40
2022-10-17T08:32:58.565Z,17.40
2022-10-17T08:35:26.406Z,17.50
2022-10-17T08:37:54.251Z,17.60
2022-10-17T08:40:26.623Z,17.70
2022-10-17T08:43:09.936Z,17.80
2022-10-17T08:45:45.212Z,17.80
2022-10-17T08:48:17.132Z,18.10
2022-10-17T08:50:47.426Z,18.00
2022-10-17T08:53:22.177Z,18.10
2022-10-17T08:55:52.890Z,18.10
2022-10-17T08:58:23.607Z,18.20
2022-10-17T09:01:01.495Z,18.20
2022-10-17T09:03:42.124Z,18.30
2022-10-17T09:06:20.642Z,18.30
2022-10-17T09:09:02.505Z,18.50
2022-10-17T09:11:49.553Z,18.60
2022-10-17T09:14:43.122Z,18.70
2022-10-17T09:17:24.813Z,18.80
2022-10-17T09:20:00.294Z,19.00
2022-10-17T09:22:33.435Z,19.10
2022-10-17T09:25:04.223Z,19.20
2022-10-17T09:27:37.775Z,19.40
2022-10-17T09:30:43.547Z,19.50
2022-10-17T09:33:28.114Z,19.60
2022-10-17T09:36:04.521Z,19.90
2022-10-17T09:38:39.096Z,19.90
2022-10-17T09:41:39.275Z,19.90
2022-10-17T09:44:18.927Z,20.00
2022-10-17T09:47:03.889Z,20.30
2022-10-17T09:49:34.772Z,20.30
2022-10-17T09:52:03.829Z,20.40
2022-10-17T09:54:42.372Z,20.40
2022-10-17T09:57:12.451Z,20.50
2022-10-17T09:59:44.058Z,20.60
2022-10-17T10:02:19.679Z,20.70
2022-10-17T10:05:07.475Z,20.70
2022-10-17T10:07:38.913Z,20.90
2022-10-17T10:10:23.569Z,21.00
2022-10-17T10:13:04.958Z,21.20
2022-10-17T10:15:37.743Z,21.40
2022-10-17T10:21:09.714Z,21.60
2022-10-17T10:23:40.177Z,21.80
2022-10-17T10:26:21.443Z,22.00
2022-10-17T10:29:02.754Z,22.20
2022-10-17T10:31:35.030Z,22.30
2022-10-17T10:34:22.994Z,22.30
2022-10-17T10:36:57.817Z,22.30
2022-10-17T10:39:49.679Z,22.30
2022-10-17T10:42:25.383Z,22.50
2022-10-17T10:44:55.108Z,22.60
2022-10-17T10:47:28.101Z,22.70
2022-10-17T10:50:18.120Z,22.80
2022-10-17T10:52:51.547Z,22.90
2022-10-17T10:55:26.351Z,23.00
2022-10-17T10:57:57.832Z,23.20
2022-10-17T11:00:28.944Z,23.30
2022-10-17T11:03:10.580Z,23.50
2022-10-17T11:05:45.134Z,23.60
2022-10-17T11:08:21.394Z,23.70
2022-10-17T11:11:00.615Z,23.90
2022-10-17T11:13:32.636Z,23.80
2022-10-17T11:16:19.430Z,23.80
2022-10-17T11:18:51.733Z,23.90
2022-10-17T11:21:26.533Z,23.90
2022-10-17T11:24:00.379Z,23.70
2022-10-17T11:26:31.630Z,23.70
2022-10-17T11:29:03.096Z,23.60
2022-10-17T11:31:37.479Z,23.60
2022-10-17T11:34:11.565Z,23.50
2022-10-17T11:36:42.798Z,23.50
2022-10-17T11:39:16.080Z,23.40
2022-10-17T11:41:49.575Z,23.30
2022-10-17T11:44:25.204Z,23.20
2022-10-17T11:46:58.266Z,23.10
2022-10-17T11:49:34.026Z,23.00
2022-10-17T11:52:44.353Z,22.90
2022-10-17T11:55:20.380Z,22.80
2022-10-17T11:57:57.222Z,22.70
2022-10-17T12:00:49.831Z,22.70
2022-10-17T12:03:32.655Z,22.60
2022-10-17T12:06:10.474Z,22.60
2022-10-17T12:08:45.981Z,22.60
2022-10-17T12:11:30.691Z,22.60
2022-10-17T12:14:00.046Z,22.60
2022-10-17T12:16:50.889Z,22.70
2022-10-17T12:19:33.839Z,22.70
2022-10-17T12:22:22.731Z,22.60
2022-10-17T12:25:01.565Z,22.60
2022-10-17T12:27:50.924Z,22.60
2022-10-17T12:30:26.819Z,22.50
2022-10-17T12:33:07.079Z,22.50
2022-10-17T12:35:37.733Z,22.40
2022-10-17T12:38:31.134Z,22.30
2022-10-17T12:41:07.750Z,22.10
2022-10-17T12:46:46.552Z,21.90
2022-10-17T12:49:42.259Z,21.80
2022-10-17T12:55:27.042Z,21.90
2022-10-17T12:57:58.879Z,22.00
2022-10-17T13:00:34.615Z,22.00
2022-10-17T13:03:12.074Z,22.10
2022-10-17T13:05:44.746Z,22.10
2022-10-17T13:08:18.707Z,22.00
2022-10-17T13:10:52.425Z,21.90
2022-10-17T13:13:22.958Z,21.90
2022-10-17T13:15:53.034Z,21.80
2022-10-17T13:18:23.011Z,21.80
2022-10-17T13:20:59.083Z,21.80
2022-10-17T13:23:30.187Z,21.80
2022-10-17T13:26:15.546Z,21.80
2022-10-17T13:28:43.639Z,21.80
2022-10-17T13:31:29.788Z,21.80
2022-10-17T13:33:58.905Z,21.70
2022-10-17T13:36:27.934Z,21.60
2022-10-17T13:38:56.168Z,21.60
2022-10-17T13:41:37.075Z,21.50
2022-10-17T13:44:13.095Z,21.50
2022-10-17T13:46:41.535Z,21.50
2022-10-17T13:49:18.903Z,21.50
2022-10-17T13:51:49.737Z,21.50
2022-10-17T13:54:32.526Z,21.50
2022-10-17T13:57:03.077Z,21.50
2022-10-17T13:59:37.585Z,21.50
2022-10-17T14:02:05.944Z,21.40
2022-10-17T14:04:56.601Z,21.40
2022-10-17T14:07:41.659Z,21.40
2022-10-17T14:10:22.294Z,21.30
2022-10-17T14:12:53.024Z,21.30
2022-10-17T14:15:25.402Z,21.20
2022-10-17T14:17:57.610Z,21.20
2022-10-17T14:23:35.279Z,21.10
2022-10-17T14:26:13.680Z,21.00
2022-10-17T14:28:45.420Z,21.00
2022-10-17T14:31:26.686Z,20.90
2022-10-17T14:33:55.293Z,21.60
2022-10-17T14:36:32.920Z,20.80
2022-10-17T14:39:02.235Z,20.80
2022-10-17T14:41:48.592Z,20.80
2022-10-17T14:44:22.609Z,20.70
2022-10-17T14:46:54.863Z,20.80
2022-10-17T14:49:36.500Z,20.70
2022-10-17T14:52:27.461Z,20.70
2022-10-17T14:54:56.097Z,20.70
2022-10-17T14:57:27.706Z,20.60
2022-10-17T14:59:57.655Z,20.60
2022-10-17T15:02:26.931Z,20.60
2022-10-17T15:04:55.147Z,20.50
2022-10-17T15:07:23.625Z,20.40
2022-10-17T15:09:53.841Z,20.40
2022-10-17T15:12:23.561Z,20.30
2022-10-17T15:14:51.739Z,20.20
2022-10-17T15:17:23.490Z,20.20
2022-10-17T15:19:51.483Z,20.10
2022-10-17T15:22:19.930Z,20.10
2022-10-17T15:24:48.218Z,20.00
2022-10-17T15:27:18.154Z,20.10
2022-10-17T15:29:46.874Z,19.90
2022-10-17T15:32:15.324Z,19.90
2022-10-17T15:34:44.579Z,19.80
2022-10-17T15:37:20.711Z,19.80
2022-10-17T15:39:53.311Z,19.80
2022-10-17T15:42:22.561Z,19.70
2022-10-17T15:44:50.541Z,19.70
2022-10-17T15:47:26.095Z,19.70
2022-10-17T15:49:56.000Z,19.60
2022-10-17T15:52:24.175Z,19.60
2022-10-17T15:54:52.442Z,19.60
2022-10-17T15:57:22.419Z,19.60
2022-10-17T15:59:51.434Z,19.50
2022-10-17T16:02:20.927Z,19.50
2022-10-17T16:04:50.728Z,19.40
2022-10-17T16:07:21.463Z,19.40
2022-10-17T16:09:49.424Z,19.30
2022-10-17T16:12:19.120Z,19.30
2022-10-17T16:14:47.024Z,19.20
2022-10-17T16:17:16.011Z,19.10
2022-10-17T16:19:44.264Z,19.10
2022-10-17T16:22:22.027Z,19.00
2022-10-17T16:24:49.945Z,19.00
2022-10-17T16:27:17.803Z,19.00
2022-10-17T16:29:45.680Z,19.00
2022-10-17T16:32:13.560Z,18.90
2022-10-17T16:34:41.439Z,18.80
2022-10-17T16:37:09.387Z,18.90
2022-10-17T16:39:41.717Z,18.80
2022-10-17T16:42:12.801Z,18.80
2022-10-17T16:44:40.651Z,18.70
2022-10-17T16:47:09.534Z,18.70
2022-10-17T16:49:40.389Z,18.60
2022-10-17T16:52:11.076Z,18.60
2022-10-17T16:54:39.103Z,18.60
2022-10-17T16:57:08.331Z,18.60
2022-10-17T16:59:36.290Z,18.40
2022-10-17T17:02:04.267Z,18.50
2022-10-17T17:04:32.301Z,18.50
2022-10-17T17:07:00.167Z,18.40
2022-10-17T17:09:28.082Z,18.40
2022-10-17T17:11:56.043Z,18.40
2022-10-17T17:14:25.282Z,18.40
2022-10-17T17:16:53.303Z,18.40
2022-10-17T17:19:21.343Z,18.40
2022-10-17T17:21:50.738Z,18.40
2022-10-17T17:24:21.003Z,18.20
2022-10-17T17:26:52.993Z,18.10
2022-10-17T17:29:20.998Z,18.20
2022-10-17T17:31:50.781Z,18.20
2022-10-17T17:34:18.965Z,18.10
2022-10-17T17:36:47.194Z,18.10
2022-10-17T17:39:16.508Z,18.10
2022-10-17T17:41:45.622Z,18.00
2022-10-17T17:44:16.711Z,18.00
2022-10-17T17:46:45.669Z,18.00
2022-10-17T17:49:15.137Z,17.90
2022-10-17T17:51:46.183Z,17.90
2022-10-17T17:54:14.318Z,17.90
2022-10-17T17:56:42.225Z,17.90
2022-10-17T17:59:13.390Z,17.90
2022-10-17T18:01:41.479Z,17.90
2022-10-17T18:04:10.474Z,17.90
2022-10-17T18:06:40.392Z,17.80
2022-10-17T18:09:09.679Z,17.80
2022-10-17T18:11:38.160Z,17.80
2022-10-17T18:14:07.868Z,17.80
2022-10-17T18:16:37.755Z,17.90
2022-10-17T18:19:07.321Z,17.70
2022-10-17T18:21:36.121Z,17.70
2022-10-17T18:24:05.888Z,17.70
2022-10-17T18:26:34.240Z,17.60
2022-10-17T18:29:02.252Z,17.60
2022-10-17T18:31:35.502Z,17.60
2022-10-17T18:34:05.185Z,17.60
2022-10-17T18:36:34.870Z,17.50
2022-10-17T18:39:03.266Z,17.50
2022-10-17T18:41:33.350Z,17.50
2022-10-17T18:44:02.796Z,17.50
2022-10-17T18:46:35.559Z,17.50
2022-10-17T18:49:03.820Z,17.40
2022-10-17T18:51:31.815Z,17.40
2022-10-17T18:53:59.707Z,17.30
2022-10-17T18:56:27.808Z,17.30
2022-10-17T18:58:57.903Z,17.30
2022-10-17T19:01:28.106Z,17.20
2022-10-17T19:03:59.696Z,17.20
2022-10-17T19:06:31.671Z,17.20
2022-10-17T19:09:00.500Z,17.20
2022-10-17T19:11:29.947Z,17.10
2022-10-17T19:14:00.694Z,17.10
2022-10-17T19:16:34.896Z,17.10
2022-10-17T19:19:05.168Z,17.10
2022-10-17T19:21:33.719Z,17.00
2022-10-17T19:24:05.006Z,17.00
2022-10-17T19:26:34.995Z,16.90
2022-10-17T19:29:05.340Z,16.90
2022-10-17T19:31:34.752Z,17.70
2022-10-17T19:34:03.134Z,17.00
2022-10-17T19:36:33.916Z,16.80
2022-10-17T19:39:02.872Z,16.80
2022-10-17T19:41:30.867Z,16.80
2022-10-17T19:44:00.421Z,16.70
2022-10-17T19:46:30.927Z,16.70
2022-10-17T19:48:59.224Z,16.70
2022-10-17T19:51:28.979Z,16.60
2022-10-17T19:54:00.168Z,16.60
2022-10-17T19:56:31.017Z,16.60
2022-10-17T19:58:59.526Z,16.50
2022-10-17T20:01:31.146Z,17.00
2022-10-17T20:03:59.085Z,16.60
2022-10-17T20:06:27.318Z,16.20
2022-10-17T20:08:55.423Z,16.20
2022-10-17T20:11:25.181Z,16.60
2022-10-17T20:13:53.583Z,16.50
2022-10-17T20:16:24.206Z,17.00
2022-10-17T20:18:55.441Z,17.20
2022-10-17T20:21:27.109Z,16.30
2022-10-17T20:23:55.872Z,16.20
2022-10-17T20:26:36.969Z,16.60
2022-10-17T20:29:15.201Z,16.20
2022-10-17T20:31:45.110Z,16.20
2022-10-17T20:34:16.882Z,16.70
2022-10-17T20:36:44.975Z,17.20
2022-10-17T20:39:14.768Z,16.60
2022-10-17T20:41:43.303Z,17.20
2022-10-17T20:44:12.327Z,16.20
2022-10-17T20:46:48.665Z,16.50
2022-10-17T20:49:30.077Z,16.50
2022-10-17T20:51:58.247Z,17.10
2022-10-17T20:54:27.719Z,16.20
2022-10-17T20:56:57.797Z,16.70
2022-10-17T20:59:28.149Z,16.20
2022-10-17T21:01:56.136Z,16.20
2022-10-17T21:07:13.211Z,16.10
2022-10-17T21:09:41.091Z,16.60
2022-10-17T21:12:09.035Z,16.00
2022-10-17T21:14:37.270Z,16.00
2022-10-17T21:17:05.697Z,15.90
2022-10-17T21:19:34.281Z,16.20
2022-10-17T21:22:02.271Z,15.80
2022-10-17T21:24:32.339Z,16.50
2022-10-17T21:27:00.378Z,15.90
2022-10-17T21:29:28.405Z,15.90
2022-10-17T21:31:56.344Z,16.60
2022-10-17T21:34:25.034Z,16.60
2022-10-17T21:36:53.258Z,15.80
2022-10-17T21:39:21.713Z,15.80
2022-10-17T21:41:51.467Z,15.70
2022-10-17T21:44:21.263Z,16.00
2022-10-17T21:46:49.499Z,16.00
2022-10-17T21:49:20.118Z,16.00
2022-10-17T21:51:48.607Z,16.20
2022-10-17T21:54:17.475Z,15.50
2022-10-17T21:56:46.107Z,15.80
2022-10-17T21:59:15.317Z,16.00
2022-10-17T22:01:44.703Z,15.40
2022-10-17T22:04:15.983Z,15.60
2022-10-17T22:06:45.629Z,16.30
2022-10-17T22:09:16.042Z,15.60
2022-10-17T22:11:47.830Z,15.70
2022-10-17T22:14:19.649Z,16.70
2022-10-17T22:16:48.955Z,14.90
2022-10-17T22:19:19.896Z,15.50
2022-10-17T22:21:47.815Z,15.30
2022-10-17T22:24:17.801Z,16.00
2022-10-17T22:26:46.127Z,16.00
2022-10-17T22:29:14.244Z,15.30
2022-10-17T22:31:43.931Z,15.20
2022-10-17T22:34:14.152Z,16.10
2022-10-17T22:36:42.781Z,15.00
2022-10-17T22:39:10.969Z,16.00
2022-10-17T22:41:38.806Z,15.90
2022-10-17T22:44:07.255Z,16.20
2022-10-17T22:46:35.182Z,15.20
2022-10-17T22:49:04.482Z,15.40
2022-10-17T22:51:33.061Z,15.70
2022-10-17T22:54:00.942Z,16.00
2022-10-17T22:56:28.873Z,15.70
2022-10-17T22:58:56.859Z,15.10
2022-10-17T23:01:26.282Z,15.70
2022-10-17T23:03:54.839Z,15.10
2022-10-17T23:06:24.411Z,15.50
2022-10-17T23:08:52.316Z,15.10
2022-10-17T23:11:20.844Z,15.70
2022-10-17T23:13:48.946Z,15.80
2022-10-17T23:16:16.916Z,15.10
2022-10-17T23:18:44.779Z,14.70
2022-10-17T23:21:12.814Z,15.00
2022-10-17T23:23:42.030Z,15.30
2022-10-17T23:26:11.839Z,15.50
2022-10-17T23:28:40.495Z,14.50
2022-10-17T23:31:13.568Z,16.10
2022-10-17T23:33:41.637Z,15.00
2022-10-17T23:36:10.748Z,15.00
2022-10-17T23:38:38.808Z,15.90
2022-10-17T23:41:08.310Z,14.80
2022-10-17T23:43:36.375Z,15.70
2022-10-17T23:46:05.881Z,15.50
2022-10-17T23:48:34.006Z,15.00
2022-10-17T23:51:01.912Z,15.00
2022-10-17T23:53:29.977Z,15.30
2022-10-17T23:55:57.919Z,15.30
2022-10-17T23:58:27.155Z,15.40
